Valley Peak, Santa Cruz Island Reserve, California Weather observations

Data are for 10 minute period ending at time listed.
 Day   Time   Solar   Ave.   Ave.  Ave.  Vector  Max.   Baro.   Total    
  of    of     Rad.   Air    Rel.  Wind   Wind   Wind  Press.  Precip.   
Year   Day            Temp.  Hum.  Speed  Dir.   Gust                    
2015   (PST)  Kw/m2    F      %     mph   deg.    mph    mb.     in.     
-------------------------------------------------------------------------
  86    3:50   0.00   75.5    19   10.1   344    14.4   967.7    0.00 
  86    4:00   0.00   74.7    20   10.4   351    14.5   967.7    0.00 
  86    4:10   0.00   74.2    21   10.9   358    14.4   967.7    0.00 
  86    4:20   0.00   73.3    21   10.5     2    12.9   967.7    0.00 
  86    4:30   0.00   73.4    21    9.7     4    13.3   967.7    0.00 
  86    4:40   0.00   72.7    22    9.8    11    12.6   967.8    0.00 
  86    4:50   0.00   71.8    23   10.7    17    12.2   967.9    0.00 
  86    5:00   0.00   71.6    23   10.3    17    11.5   968.0    0.00 
  86    5:10   0.00   71.6    23   10.2    17    11.4   968.1    0.00 
  86    5:20   0.00   71.6    23   10.0    16    12.5   968.2    0.00 
  86    5:30   0.00   71.7    23    9.1    18    10.6   968.2    0.00 
  86    5:40   0.00   71.9    23    8.3    16     9.8   968.2    0.00 
  86    5:50   0.00   72.5    23    8.2     8    10.1   968.3    0.00 
  86    6:00   0.00   73.6    22    8.0     8     9.3   968.4    0.00 
  86    6:10   0.01   73.7    22    7.7    13    10.2   968.5    0.00 
  86    6:20   0.03   73.1    23    7.0    19     7.8   968.6    0.00 
  86    6:30   0.09   72.9    24    6.1    18     7.0   968.7    0.00 
  86    6:40   0.12   73.0    24    6.7    19     7.9   968.7    0.00 
  86    6:50   0.15   73.5    24    6.8    15     7.8   968.8    0.00 
  86    7:00   0.19   74.4    23    6.6     9     8.0   968.8    0.00 
  86    7:10   0.23   75.1    23    5.9    13     7.8   968.7    0.00 
  86    7:20   0.27   75.1    24    4.0    29     6.1   968.7    0.00 
  86    7:30   0.31   75.0    25    3.7    75     5.3   968.8    0.00 
  86    7:40   0.35   73.6    26    5.0   124     6.9   968.9    0.00 
  86    7:50   0.38   73.5    26    4.9   134     6.7   969.1    0.00 
  86    8:00   0.42   74.1    25    4.3   142     6.2   969.2    0.00 
  86    8:10   0.46   74.5    25    3.4   154     4.9   969.3    0.00 
  86    8:20   0.49   74.6    26    4.8   173     6.9   969.4    0.00 
  86    8:30   0.53   74.9    26    4.3   162     6.1   969.5    0.00 
  86    8:40   0.56   78.0    24    3.2   144     5.0   969.5    0.00 
  86    8:50   0.60   77.8    27    3.9   167     6.9   969.6    0.00 
  86    9:00   0.63   78.7    26    4.5   132     7.3   969.6    0.00 
  86    9:10   0.66   79.9    28    3.8   136     7.5   969.7    0.00 
  86    9:20   0.69   81.2    23    4.7   122     8.3   969.8    0.00 
  86    9:30   0.72   82.3    24    4.2   131     7.2   969.9    0.00 
  86    9:40   0.74   82.6    26    4.4   140     8.3   969.9    0.00 
  86    9:50   0.77   81.4    24    5.5   135    10.7   970.0    0.00 
  86   10:00   0.79   80.7    22    5.6   138     9.5   970.0    0.00 
  86   10:10   0.81   81.1    23    5.3   143     9.0   970.1    0.00 
  86   10:20   0.83   82.0    22    5.6   144     9.1   970.1    0.00 
  86   10:30   0.85   83.0    20    4.9   141    10.5   970.1    0.00 
  86   10:40   0.87   83.5    19    5.0   149     9.0   970.1    0.00 
  86   10:50   0.88   83.4    19    4.9   139     8.4   970.2    0.00 
  86   11:00   0.90   84.5    19    5.0   134     8.0   970.3    0.00 
  86   11:10   0.91   85.1    19    4.0   126     7.4   970.2    0.00 
  86   11:20   0.92   86.5    19    4.0   135     8.6   970.2    0.00 
  86   11:30   0.93   86.2    19    5.0   150     8.3   970.3    0.00 
  86   11:40   0.93   85.0    20    5.0   148     8.7   970.3    0.00 
  86   11:50   0.93   83.2    21    5.3   147     8.4   970.2    0.00 
  86   12:00   0.93   83.6    20    4.6   139     9.6   970.1    0.00 
  86   12:10   0.93   84.8    19    4.2   145     7.9   970.0    0.00 
  86   12:20   0.93   84.3    20    5.5   158     9.1   970.0    0.00 
  86   12:30   0.93   84.6    18    4.0   142     7.7   969.9    0.00 
  86   12:40   0.92   85.7    18    4.0   144     9.4   969.7    0.00 
  86   12:50   0.91   86.0    18    3.6   133     7.6   969.7    0.00 
  86   13:00   0.90   86.0    18    4.0   140     8.5   969.6    0.00 
  86   13:10   0.89   86.9    17    3.4   150     7.3   969.6    0.00 
  86   13:20   0.88   86.6    18    2.5   158     5.8   969.6    0.00 
  86   13:30   0.86   87.7    18    2.5   167     6.0   969.5    0.00 
  86   13:40   0.84   87.1    22    1.6   163     6.4   969.5    0.00 
  86   13:50   0.82   85.7    27    2.0   137     5.1   969.4    0.00 
  86   14:00   0.80   86.3    29    2.1    62     4.3   969.3    0.00 
  86   14:10   0.77   84.4    32    3.3    41     5.0   969.3    0.00 
  86   14:20   0.75   82.6    32    3.4    27     4.7   969.1    0.00 
  86   14:30   0.73   80.7    32    4.2    15     8.3   969.0    0.00 
  86   14:40   0.70   80.6    30    3.5    11     6.0   968.9    0.00 
  86   14:50   0.67   81.4    30    4.5    26     6.9   968.8    0.00 
  86   15:00   0.64   82.5    29    2.8    26     7.6   968.7    0.00 
  86   15:10   0.60   83.5    27    1.9    17     4.4   968.7    0.00 
  86   15:20   0.57   84.5    24    2.3   302     5.9   968.7    0.00 
  86   15:30   0.54   88.2    21    2.2   171     6.1   968.6    0.00 
  86   15:40   0.51   88.5    22    1.4   106     3.7   968.5    0.00 
  86   15:50   0.47   88.2    21    3.0   197     5.9   968.5    0.00 
  86   16:00   0.44   88.4    21    2.8   206     6.1   968.5    0.00 
  86   16:10   0.40   87.2    23    3.5   208     7.2   968.5    0.00 
  86   16:20   0.36   86.1    24    2.8   212     6.1   968.4    0.00 
  86   16:30   0.33   85.4    27    2.1   230     5.6   968.3    0.00 
  86   16:40   0.29   86.7    26    2.8   215     7.5   968.3    0.00 
  86   16:50   0.25   84.2    22    3.9   243     6.6   968.3    0.00 
  86   17:00   0.21   83.9    22    3.1   276     5.1   968.2    0.00 
  86   17:10   0.18   83.6    25    3.2   323     5.2   968.1    0.00 
  86   17:20   0.14   80.7    29    3.3   342     4.4   968.0    0.00 
  86   17:30   0.11   78.4    32    4.7     8     5.7   967.8    0.00 
  86   17:40   0.08   76.6    34    5.0   359     5.9   967.7    0.00 
  86   17:50   0.05   75.7    31    4.7   343     5.7   967.6    0.00 
  86   18:00   0.02   75.1    31    4.6   329     6.1   967.5    0.00 
  86   18:10   0.01   75.6    26    6.0   324     7.9   967.5    0.00 
  86   18:20   0.00   75.3    24    7.7   323     9.7   967.4    0.00 
  86   18:30   0.00   73.8    28    8.1   341    10.3   967.3    0.00 
  86   18:40   0.00   71.2    35    6.7   357     9.6   967.3    0.00 
  86   18:50   0.00   70.3    34    7.8     0    10.2   967.4    0.00 
  86   19:00   0.00   68.3    39    8.8    16    11.3   967.5    0.00 
  86   19:10   0.00   68.4    36   10.0     3    12.3   967.6    0.00 
  86   19:20   0.00   68.6    35   10.2     1    14.1   967.7    0.00 
  86   19:30   0.00   68.1    36   10.0     5    13.2   967.9    0.00 
  86   19:40   0.00   68.5    35    9.6     7    12.8   968.1    0.00 
  86   19:50   0.00   68.1    36   11.6     3    15.9   968.2    0.00 
  86   20:00   0.00   68.9    34   10.7     2    15.2   968.3    0.00 
  86   20:10   0.00   70.0    33    9.9   349    15.4   968.3    0.00 
  86   20:20   0.00   71.0    32   12.2   332    17.0   968.4    0.00 
  86   20:30   0.00   72.0    29   12.5   328    17.8   968.5    0.00 
  86   20:40   0.00   72.8    27   13.8   335    18.8   968.5    0.00 
  86   20:50   0.00   72.8    26   13.1   342    18.6   968.5    0.00 
  86   21:00   0.00   72.6    26   12.1   345    19.4   968.5    0.00 
  86   21:10   0.00   71.8    28   12.6   355    16.4   968.5    0.00 
  86   21:20   0.00   71.0    31   13.7   353    18.3   968.5    0.00 
  86   21:30   0.00   71.6    30   13.9   345    18.3   968.5    0.00 
  86   21:40   0.00   71.6    29   12.7   345    16.9   968.5    0.00 
  86   21:50   0.00   72.2    26   13.0   340    19.0   968.6    0.00 
  86   22:00   0.00   72.5    25   11.4   346    18.6   968.6    0.00 
  86   22:10   0.00   72.7    24   11.4   343    15.2   968.6    0.00 
  86   22:20   0.00   72.8    24    9.6   338    14.0   968.6    0.00 
  86   22:30   0.00   73.5    22   11.6   329    15.9   968.6    0.00 
  86   22:40   0.00   73.7    22    9.5   337    14.0   968.7    0.00 
  86   22:50   0.00   73.5    22    8.2   341    11.2   968.6    0.00 
  86   23:00   0.00   73.5    22    7.4   345    10.7   968.6    0.00 
  86   23:10   0.00   73.1    23    6.7   349    10.7   968.5    0.00 
  86   23:20   0.00   72.3    24    7.1   349    10.6   968.4    0.00 
  86   23:30   0.00   72.5    24    8.1   349    10.3   968.4    0.00 
  86   23:40   0.00   72.4    24    7.3   345     9.3   968.5    0.00 
  86   23:50   0.00   72.2    25    5.4   340     6.6   968.5    0.00 
  87    0:00   0.00   72.2    23    2.3   279     4.5   968.5    0.00 
  87    0:10   0.00   71.7    23    2.1   251     5.8   968.5    0.00 
  87    0:20   0.00   72.6    22    3.2   305     6.3   968.4    0.00 
  87    0:30   0.00   72.2    23    2.1   283     2.7   968.4    0.00 
  87    0:40   0.00   71.4    24    4.1   247     6.1   968.4    0.00 
  87    0:50   0.00   69.8    26    6.2   240     7.5   968.3    0.00 
  87    1:00   0.00   69.4    27    4.8   233     6.2   968.2    0.00 
  87    1:10   0.00   69.5    27    5.5   208     5.9   968.1    0.00 
  87    1:20   0.00   70.1    28    6.0   190     7.3   968.0    0.00 
  87    1:30   0.00   69.9    28    5.9   195     6.9   967.9    0.00 
  87    1:40   0.00   69.8    27    4.2   215     5.5   968.0    0.00 
  87    1:50   0.00   68.7    28    2.6   323     4.6   968.0    0.00 
  87    2:00   0.00   68.1    28    4.5   246     6.4   967.8    0.00 
  87    2:10   0.00   69.4    24    2.5   243     3.5   967.8    0.00 
  87    2:20   0.00   71.4    19    1.9   269     2.6   967.6    0.00 
  87    2:30   0.00   73.2    18    3.3   335     4.9   967.5    0.00 
  87    2:40   0.00   72.6    20    6.0    12     7.6   967.5    0.00 
  87    2:50   0.00   69.6    27    5.4    29     6.9   967.5    0.00 
  87    3:00   0.00   68.9    27    5.3     5     7.2   967.5    0.00 
  87    3:10   0.00   68.9    28    4.1    23     6.6   967.5    0.00 
  87    3:20   0.00   68.2    29    2.7    19     4.4   967.5    0.00 
  87    3:30   0.00   67.6    30    3.8    34     4.9   967.5    0.00 
  87    3:40   0.00   66.7    31    5.5    41     8.6   967.5    0.00 

Return to Valley Peak, Santa Cruz Island Reserve graphs page.


Western Regional Climate Center,wrcc@dri.edu